Time;durP1;ratioP1;P1;durP2;ratioP2;P2;SDS_P1;SDS_P2;PMS_P1;PMS_P2;Temp;Humidity;BMP_temperature;BMP_pressure;BME280_temperature;BME280_humidity;BME280_pressure;Samples;Min_cycle;Max_cycle;Signal;HPM_P1;HPM_P2
2022/10/19 00:01:55;;;;;;;5.88;3.63;;;15.60;65.00;;;;;;4987490;28;20038;-82
2022/10/19 00:04:21;;;;;;;5.65;3.20;;;15.60;65.00;;;;;;4978018;28;20037;-82
2022/10/19 00:06:47;;;;;;;6.32;2.88;;;15.60;65.00;;;;;;4971317;28;20247;-81
2022/10/19 00:09:16;;;;;;;6.90;3.00;;;15.60;65.00;;;;;;4978267;28;20042;-80
2022/10/19 00:11:45;;;;;;;7.15;3.38;;;15.60;65.00;;;;;;4993431;28;20018;-79
2022/10/19 00:14:15;;;;;;;11.00;4.03;;;15.60;65.00;;;;;;4988920;28;20414;-79
2022/10/19 00:16:43;;;;;;;5.50;2.50;;;15.60;65.00;;;;;;4987376;28;20023;-80
2022/10/19 00:19:13;;;;;;;6.70;2.63;;;15.60;65.00;;;;;;4986645;28;20022;-80
2022/10/19 00:21:39;;;;;;;4.78;2.78;;;15.60;65.20;;;;;;4985080;28;20026;-79
2022/10/19 00:24:06;;;;;;;5.07;2.53;;;15.60;65.00;;;;;;4977897;28;20109;-80
2022/10/19 00:26:32;;;;;;;6.32;3.05;;;15.70;65.20;;;;;;4985998;28;20056;-80
2022/10/19 00:28:59;;;;;;;6.65;3.80;;;15.70;65.20;;;;;;4989781;28;20050;-81
2022/10/19 00:31:25;;;;;;;6.85;2.40;;;15.60;65.00;;;;;;4994338;28;20050;-80
2022/10/19 00:33:51;;;;;;;6.85;3.33;;;15.70;65.20;;;;;;5001037;28;20030;-81
2022/10/19 00:36:22;;;;;;;4.32;2.08;;;15.70;65.20;;;;;;4993273;28;20032;-79
2022/10/19 00:38:50;;;;;;;4.32;2.25;;;15.60;65.10;;;;;;4952736;28;20026;-81
2022/10/19 00:41:17;;;;;;;7.25;3.05;;;15.70;65.20;;;;;;4965573;28;20056;-80
2022/10/19 00:43:57;;;;;;;5.70;2.88;;;15.60;65.10;;;;;;4983949;28;20050;-81
2022/10/19 00:46:24;;;;;;;5.45;2.42;;;15.60;65.10;;;;;;4995096;28;20034;-80
2022/10/19 00:48:54;;;;;;;5.75;2.75;;;15.60;65.10;;;;;;4992509;28;20101;-82
2022/10/19 00:51:21;;;;;;;4.65;2.20;;;15.70;65.30;;;;;;4986316;28;20059;-80
2022/10/19 00:53:48;;;;;;;5.35;2.65;;;15.60;65.20;;;;;;4969710;28;20026;-81
2022/10/19 00:56:15;;;;;;;4.78;2.50;;;15.60;65.20;;;;;;4987429;28;20044;-82
2022/10/19 00:58:43;;;;;;;7.55;2.58;;;15.60;65.20;;;;;;4980920;28;20029;-79
2022/10/19 01:01:13;;;;;;;5.75;2.20;;;15.60;65.30;;;;;;4995388;28;20383;-80
2022/10/19 01:03:40;;;;;;;7.07;2.50;;;15.60;65.30;;;;;;4989038;28;20034;-79
2022/10/19 01:06:07;;;;;;;4.60;2.22;;;15.60;65.30;;;;;;4987305;28;20038;-79
2022/10/19 01:08:33;;;;;;;5.65;2.35;;;15.60;65.40;;;;;;4980365;28;20030;-79
2022/10/19 01:11:01;;;;;;;6.72;3.00;;;15.60;65.40;;;;;;4980995;28;20092;-78
2022/10/19 01:13:45;;;;;;;6.88;2.70;;;15.60;65.40;;;;;;4981501;28;20023;-81
2022/10/19 01:16:33;;;;;;;5.68;2.20;;;15.60;65.50;;;;;;4980050;28;20042;-80
2022/10/19 01:19:19;;;;;;;6.78;2.80;;;15.60;65.50;;;;;;4987318;28;20061;-81
2022/10/19 01:21:54;;;;;;;7.40;2.40;;;15.60;65.50;;;;;;4985312;28;20034;-81
2022/10/19 01:24:31;;;;;;;6.55;2.85;;;15.50;66.00;;;;;;4989361;28;20136;-82
2022/10/19 01:27:27;;;;;;;9.68;3.33;;;15.50;65.50;;;;;;4989036;28;20030;-82
2022/10/19 01:30:08;;;;;;;8.63;2.40;;;15.50;65.60;;;;;;4994610;28;20554;-82
2022/10/19 01:32:48;;;;;;;8.30;3.03;;;15.50;65.80;;;;;;4988507;28;20038;-82
2022/10/19 01:35:30;;;;;;;5.32;2.40;;;15.50;65.80;;;;;;4980516;28;20085;-81
2022/10/19 01:38:14;;;;;;;7.13;2.60;;;15.40;65.80;;;;;;4988635;28;20057;-82
2022/10/19 01:41:04;;;;;;;5.78;2.42;;;15.40;65.90;;;;;;4993670;28;20442;-81
2022/10/19 01:43:49;;;;;;;4.78;2.03;;;15.40;66.00;;;;;;4980874;28;20018;-83
2022/10/19 01:47:03;;;;;;;6.05;3.20;;;15.30;66.00;;;;;;4984035;28;20030;-82
2022/10/19 01:49:45;;;;;;;6.70;2.30;;;15.30;66.20;;;;;;4990355;28;20067;-82
2022/10/19 01:52:16;;;;;;;5.13;2.83;;;15.30;66.20;;;;;;4973966;28;20148;-83
2022/10/19 01:54:47;;;;;;;9.80;3.83;;;15.20;66.10;;;;;;4989651;28;20023;-83
2022/10/19 01:57:19;;;;;;;6.18;2.38;;;15.20;66.20;;;;;;4993616;28;20521;-82
2022/10/19 01:59:47;;;;;;;5.45;3.60;;;15.20;66.30;;;;;;5002452;28;20035;-80
2022/10/19 02:02:15;;;;;;;8.80;3.60;;;15.20;66.40;;;;;;4987399;28;20089;-82
2022/10/19 02:04:42;;;;;;;5.32;2.85;;;15.20;66.60;;;;;;4992890;28;20030;-81
2022/10/19 02:07:09;;;;;;;10.38;3.30;;;15.20;66.70;;;;;;4992231;28;20018;-82
2022/10/19 02:09:36;;;;;;;5.28;2.53;;;15.10;66.60;;;;;;4992582;28;20037;-82
2022/10/19 02:12:07;;;;;;;5.97;2.65;;;15.10;66.70;;;;;;4974919;28;20461;-82
2022/10/19 02:14:38;;;;;;;4.97;3.03;;;15.10;66.80;;;;;;4993463;28;20026;-81
2022/10/19 02:17:08;;;;;;;7.18;3.13;;;15.10;66.90;;;;;;4991807;28;20049;-81
2022/10/19 02:19:35;;;;;;;6.13;2.60;;;15.10;67.00;;;;;;4988201;28;20023;-82
2022/10/19 02:22:01;;;;;;;5.05;2.30;;;15.10;67.00;;;;;;4974994;28;20026;-82
2022/10/19 02:24:27;;;;;;;5.45;2.90;;;15.00;66.90;;;;;;4992826;28;20033;-83
2022/10/19 02:26:55;;;;;;;6.40;3.55;;;15.00;67.00;;;;;;4992759;28;20030;-81
2022/10/19 02:29:21;;;;;;;8.40;3.05;;;15.00;67.10;;;;;;4992593;28;20041;-82
2022/10/19 02:31:48;;;;;;;8.48;3.75;;;14.90;67.00;;;;;;4992462;28;20030;-81
2022/10/19 02:34:13;;;;;;;7.50;2.60;;;14.90;67.10;;;;;;4986652;28;20076;-81
2022/10/19 02:36:40;;;;;;;7.15;2.65;;;14.90;67.20;;;;;;4986264;28;20030;-81
2022/10/19 02:39:07;;;;;;;7.65;2.95;;;14.90;67.30;;;;;;4990885;28;20268;-81
2022/10/19 02:41:41;;;;;;;6.03;3.20;;;14.90;67.40;;;;;;4986934;28;20086;-80
2022/10/19 02:44:18;;;;;;;7.97;3.80;;;14.90;67.50;;;;;;4989969;28;20031;-81
2022/10/19 02:46:50;;;;;;;5.70;2.65;;;14.80;67.40;;;;;;4991013;28;20037;-80
2022/10/19 02:49:17;;;;;;;11.18;4.32;;;14.80;67.50;;;;;;5000610;28;20063;-79
2022/10/19 02:52:06;;;;;;;6.32;2.92;;;14.80;67.60;;;;;;4989605;28;20459;-82
2022/10/19 02:54:33;;;;;;;9.27;3.17;;;14.80;67.70;;;;;;4992391;28;20410;-80
2022/10/19 02:56:59;;;;;;;7.90;3.42;;;14.80;67.60;;;;;;4977528;28;20015;-81
2022/10/19 02:59:25;;;;;;;7.05;3.20;;;14.80;67.70;;;;;;5001956;28;20401;-81
2022/10/19 03:01:52;;;;;;;6.97;3.45;;;14.80;67.80;;;;;;4991377;28;20413;-82
2022/10/19 03:04:17;;;;;;;7.43;4.07;;;14.80;67.90;;;;;;4990929;28;20304;-81
2022/10/19 03:06:43;;;;;;;6.50;2.85;;;14.70;67.70;;;;;;4992259;28;20060;-81
2022/10/19 03:09:10;;;;;;;7.40;3.17;;;14.70;67.80;;;;;;4991621;28;20034;-82
2022/10/19 03:11:37;;;;;;;8.70;3.80;;;14.70;67.80;;;;;;4994594;28;20031;-81
2022/10/19 03:14:03;;;;;;;6.63;3.38;;;14.70;67.90;;;;;;4990638;28;20030;-82
2022/10/19 03:16:29;;;;;;;7.13;2.92;;;14.70;67.90;;;;;;4987524;28;20044;-82
2022/10/19 03:18:54;;;;;;;8.52;3.30;;;14.70;68.00;;;;;;4989825;28;20042;-82
2022/10/19 03:21:20;;;;;;;7.55;3.38;;;14.70;68.00;;;;;;4985817;28;20124;-81
2022/10/19 03:23:46;;;;;;;5.93;3.55;;;14.70;68.10;;;;;;4989664;28;20144;-81
2022/10/19 03:26:14;;;;;;;6.85;2.92;;;14.70;68.20;;;;;;4988958;28;20030;-81
2022/10/19 03:28:40;;;;;;;6.55;3.10;;;14.60;68.10;;;;;;4985758;28;20029;-82
2022/10/19 03:31:06;;;;;;;6.30;3.17;;;14.60;68.10;;;;;;4985476;28;20045;-80
2022/10/19 03:33:32;;;;;;;10.07;3.45;;;14.60;68.20;;;;;;4990926;28;20022;-81
2022/10/19 03:36:28;;;;;;;7.07;3.20;;;14.60;68.20;;;;;;4991918;28;20026;-80
2022/10/19 03:38:56;;;;;;;8.23;3.67;;;14.60;68.30;;;;;;4993917;28;20034;-83
2022/10/19 03:41:24;;;;;;;6.78;2.55;;;14.50;68.10;;;;;;4984608;28;20034;-82
2022/10/19 03:43:50;;;;;;;8.27;3.33;;;14.50;68.20;;;;;;5003688;28;20056;-81
2022/10/19 03:46:16;;;;;;;5.90;3.08;;;14.50;68.30;;;;;;5007009;28;20022;-81
2022/10/19 03:48:43;;;;;;;8.65;3.05;;;14.50;68.30;;;;;;4989805;28;20044;-81
2022/10/19 03:51:17;;;;;;;5.88;2.75;;;14.50;68.40;;;;;;4991299;28;20058;-81
2022/10/19 03:53:44;;;;;;;7.22;2.83;;;14.40;68.40;;;;;;4989940;28;20029;-81
2022/10/19 03:56:15;;;;;;;6.90;3.88;;;14.40;68.40;;;;;;4991146;28;20393;-81
2022/10/19 03:58:43;;;;;;;7.13;3.08;;;14.40;68.50;;;;;;4993249;28;20030;-82
2022/10/19 04:01:12;;;;;;;6.78;3.10;;;14.40;68.50;;;;;;4990827;28;20023;-81
2022/10/19 04:03:38;;;;;;;9.18;3.13;;;14.40;68.60;;;;;;4989551;28;20031;-80
2022/10/19 04:06:06;;;;;;;5.07;3.00;;;14.40;68.60;;;;;;4990680;28;20540;-80
2022/10/19 04:08:32;;;;;;;7.93;3.70;;;14.40;68.60;;;;;;4957723;28;20430;-81
2022/10/19 04:11:03;;;;;;;7.57;3.40;;;14.40;68.70;;;;;;4991276;28;20034;-82
2022/10/19 04:13:29;;;;;;;6.07;2.85;;;14.40;68.80;;;;;;4973481;28;20041;-81
2022/10/19 04:15:55;;;;;;;8.35;2.80;;;14.40;68.70;;;;;;4985566;28;20138;-80
2022/10/19 04:18:21;;;;;;;7.13;3.03;;;14.40;68.80;;;;;;4990642;28;20034;-81
2022/10/19 04:20:47;;;;;;;6.43;2.95;;;14.40;68.80;;;;;;4988580;28;20137;-81
2022/10/19 04:23:13;;;;;;;6.95;2.90;;;14.40;68.90;;;;;;4995862;28;20025;-79
2022/10/19 04:25:39;;;;;;;5.30;3.15;;;14.40;68.90;;;;;;4985981;28;20042;-80
2022/10/19 04:28:05;;;;;;;7.50;3.20;;;14.40;68.90;;;;;;4990961;28;20034;-80
2022/10/19 04:30:31;;;;;;;7.38;2.80;;;14.30;68.80;;;;;;4991955;28;20043;-80
2022/10/19 04:32:56;;;;;;;7.13;3.15;;;14.30;68.80;;;;;;4994413;28;20374;-80
2022/10/19 04:35:22;;;;;;;8.93;4.07;;;14.30;68.90;;;;;;4994012;28;20042;-80
2022/10/19 04:37:49;;;;;;;7.05;3.45;;;14.30;68.90;;;;;;4991891;28;20023;-81
2022/10/19 04:40:15;;;;;;;6.95;2.97;;;14.30;69.00;;;;;;4994370;28;20050;-81
2022/10/19 04:42:41;;;;;;;9.50;3.90;;;14.30;69.00;;;;;;5000560;28;20034;-82
2022/10/19 04:45:07;;;;;;;9.70;3.20;;;14.30;69.10;;;;;;4994757;28;20410;-82
2022/10/19 04:47:33;;;;;;;12.45;3.55;;;14.30;69.10;;;;;;4990083;28;20030;-81
2022/10/19 04:49:59;;;;;;;7.45;3.05;;;14.30;69.10;;;;;;4991128;28;20565;-81
2022/10/19 04:52:24;;;;;;;7.97;4.20;;;14.20;69.00;;;;;;4984372;28;20128;-81
2022/10/19 04:54:50;;;;;;;6.50;3.47;;;14.30;69.20;;;;;;4989596;28;20042;-81
2022/10/19 04:57:16;;;;;;;7.78;3.47;;;14.30;69.30;;;;;;4989539;28;20030;-80
2022/10/19 04:59:42;;;;;;;9.88;3.67;;;14.20;69.10;;;;;;4999691;28;20553;-81
2022/10/19 05:02:08;;;;;;;7.93;3.47;;;14.20;69.10;;;;;;4992616;28;20130;-82
2022/10/19 05:04:34;;;;;;;6.03;3.15;;;14.30;69.40;;;;;;4990485;28;20065;-82
2022/10/19 05:07:00;;;;;;;8.60;3.22;;;14.30;69.40;;;;;;5000035;28;20553;-79
2022/10/19 05:09:26;;;;;;;8.13;4.15;;;14.30;69.40;;;;;;4993302;28;20034;-81
2022/10/19 05:11:52;;;;;;;7.50;4.03;;;14.30;69.50;;;;;;4989064;28;20115;-81
2022/10/19 05:14:19;;;;;;;6.00;3.20;;;14.30;69.40;;;;;;4988018;28;20615;-81
2022/10/19 05:16:45;;;;;;;10.02;4.55;;;14.30;69.40;;;;;;4988826;28;20034;-85
2022/10/19 05:19:12;;;;;;;6.50;3.00;;;14.30;69.50;;;;;;4988183;28;20583;-84
2022/10/19 05:21:38;;;;;;;6.18;3.17;;;14.30;69.50;;;;;;4989699;28;20096;-83
2022/10/19 05:24:05;;;;;;;9.32;3.53;;;14.40;69.70;;;;;;4974661;28;20094;-83
2022/10/19 05:26:31;;;;;;;7.50;3.17;;;14.30;69.50;;;;;;5003360;28;20030;-82
2022/10/19 05:29:00;;;;;;;8.38;3.30;;;14.30;69.50;;;;;;5025844;28;20030;-81
2022/10/19 05:31:29;;;;;;;9.23;3.55;;;14.30;69.60;;;;;;5012112;28;20037;-81
2022/10/19 05:33:56;;;;;;;5.70;2.75;;;14.30;69.60;;;;;;5008321;28;20066;-82
2022/10/19 05:36:44;;;;;;;10.23;4.47;;;14.30;69.60;;;;;;5007521;28;20062;-87
2022/10/19 05:39:15;;;;;;;6.55;3.45;;;14.30;69.60;;;;;;4994162;28;20283;-85
2022/10/19 05:41:47;;;;;;;12.00;3.20;;;14.30;69.70;;;;;;5010243;28;20069;-85
2022/10/19 05:44:16;;;;;;;6.88;3.20;;;14.30;69.70;;;;;;5012027;28;20023;-84
2022/10/19 05:46:42;;;;;;;9.05;3.65;;;14.30;69.70;;;;;;4993007;28;20097;-82
2022/10/19 05:49:12;;;;;;;9.02;3.95;;;14.30;69.80;;;;;;4987410;28;20031;-84
2022/10/19 05:51:38;;;;;;;8.20;3.42;;;14.30;69.80;;;;;;4984734;28;20074;-84
2022/10/19 05:54:05;;;;;;;8.35;3.95;;;14.20;70.20;;;;;;4995507;28;20188;-86
2022/10/19 05:56:31;;;;;;;8.25;3.55;;;14.30;69.90;;;;;;4990319;28;20035;-83
2022/10/19 05:59:00;;;;;;;8.40;3.13;;;14.30;69.90;;;;;;4999074;28;20044;-82
2022/10/19 06:01:27;;;;;;;6.97;3.92;;;14.30;69.90;;;;;;5005899;28;20053;-83
2022/10/19 06:03:55;;;;;;;8.88;3.58;;;14.30;69.90;;;;;;4990110;28;20426;-85
2022/10/19 06:06:22;;;;;;;10.80;3.72;;;14.30;70.00;;;;;;4990512;28;20042;-81
2022/10/19 06:08:49;;;;;;;9.05;4.60;;;14.30;70.00;;;;;;4945669;28;20038;-85
2022/10/19 06:11:27;;;;;;;7.90;3.55;;;14.30;70.00;;;;;;4993394;28;20038;-86
2022/10/19 06:13:55;;;;;;;6.20;3.35;;;14.30;70.00;;;;;;4989616;28;20035;-83
2022/10/19 06:16:23;;;;;;;7.95;3.70;;;14.30;70.00;;;;;;4993262;28;20076;-85
2022/10/19 06:18:49;;;;;;;6.85;3.75;;;14.30;70.00;;;;;;4994543;28;20014;-85
2022/10/19 06:21:19;;;;;;;8.27;3.35;;;14.30;70.60;;;;;;4981487;28;20035;-86
2022/10/19 06:23:49;;;;;;;9.60;3.90;;;14.30;70.10;;;;;;4989669;28;20049;-82
2022/10/19 06:26:15;;;;;;;5.25;2.70;;;14.30;70.10;;;;;;4990533;28;20034;-83
2022/10/19 06:28:43;;;;;;;7.82;3.08;;;14.30;70.10;;;;;;4993744;28;20181;-84
2022/10/19 06:31:10;;;;;;;11.98;4.82;;;14.30;70.10;;;;;;4997372;28;20026;-84
2022/10/19 06:33:37;;;;;;;7.68;3.83;;;14.30;70.10;;;;;;4982221;28;20035;-84
2022/10/19 06:36:13;;;;;;;8.63;3.72;;;14.30;70.10;;;;;;4988821;28;20048;-85
2022/10/19 06:38:39;;;;;;;10.15;4.10;;;14.30;70.20;;;;;;4990973;28;20528;-84
2022/10/19 06:41:06;;;;;;;5.82;3.15;;;14.30;70.10;;;;;;5005366;28;20443;-85
2022/10/19 06:43:33;;;;;;;6.25;3.00;;;14.30;70.20;;;;;;4984817;28;20690;-85
2022/10/19 06:46:06;;;;;;;7.70;3.17;;;14.30;70.20;;;;;;4995422;28;20034;-84
2022/10/19 06:48:33;;;;;;;8.18;4.10;;;14.20;70.00;;;;;;4970861;28;20038;-84
2022/10/19 06:51:04;;;;;;;4.75;2.72;;;14.30;70.20;;;;;;4985524;28;20053;-82
2022/10/19 06:53:33;;;;;;;7.65;3.40;;;14.30;70.30;;;;;;5002025;28;20345;-85
2022/10/19 06:56:04;;;;;;;9.30;3.38;;;14.30;70.30;;;;;;4988346;28;20057;-85
2022/10/19 06:58:35;;;;;;;11.10;3.35;;;14.20;70.10;;;;;;4982301;28;20048;-84
2022/10/19 07:01:01;;;;;;;7.90;3.33;;;14.30;70.30;;;;;;4973140;28;20040;-84
2022/10/19 07:03:28;;;;;;;12.63;4.03;;;14.20;70.10;;;;;;5004114;28;20034;-85
2022/10/19 07:05:56;;;;;;;10.07;3.47;;;14.30;70.30;;;;;;4986982;28;20038;-83
2022/10/19 07:08:23;;;;;;;8.63;3.72;;;14.20;70.60;;;;;;4987613;28;20022;-86
2022/10/19 07:10:55;;;;;;;5.82;2.92;;;14.30;70.30;;;;;;4987659;28;20034;-86
2022/10/19 07:13:21;;;;;;;8.82;3.85;;;14.30;70.30;;;;;;4988020;28;20498;-80
2022/10/19 07:15:47;;;;;;;9.40;4.03;;;14.30;70.30;;;;;;4976831;28;20039;-86
2022/10/19 07:18:14;;;;;;;9.05;3.60;;;14.30;70.30;;;;;;4986695;28;20038;-82
2022/10/19 07:20:40;;;;;;;13.88;5.22;;;14.30;70.30;;;;;;4983430;28;20060;-84
2022/10/19 07:23:07;;;;;;;12.23;4.38;;;14.30;70.30;;;;;;4983867;28;20029;-85
2022/10/19 07:25:34;;;;;;;9.82;3.95;;;14.40;70.40;;;;;;4982540;28;20038;-81
2022/10/19 07:28:01;;;;;;;9.50;4.05;;;14.40;70.40;;;;;;4969296;28;20034;-82
2022/10/19 07:30:27;;;;;;;8.13;3.78;;;14.40;70.40;;;;;;4959359;28;20056;-81
2022/10/19 07:32:53;;;;;;;8.25;3.83;;;14.40;70.30;;;;;;4984966;28;20023;-84
2022/10/19 07:35:19;;;;;;;9.15;3.85;;;14.40;70.30;;;;;;4977421;28;20288;-83
2022/10/19 07:37:45;;;;;;;10.15;3.90;;;14.40;70.30;;;;;;4986194;28;20498;-83
2022/10/19 07:40:11;;;;;;;10.65;4.00;;;14.50;70.50;;;;;;4992041;28;20038;-84
2022/10/19 07:42:38;;;;;;;10.57;4.32;;;14.50;70.50;;;;;;4969906;28;20041;-83
2022/10/19 07:45:04;;;;;;;9.23;4.82;;;14.50;70.40;;;;;;4969543;28;20030;-81
2022/10/19 07:47:30;;;;;;;8.07;5.40;;;14.60;70.60;;;;;;4984678;28;20453;-82
2022/10/19 07:49:55;;;;;;;12.32;5.82;;;14.60;70.50;;;;;;4985249;28;20052;-83
2022/10/19 07:52:21;;;;;;;14.00;5.68;;;14.70;70.60;;;;;;4983142;28;20288;-82
2022/10/19 07:54:48;;;;;;;10.40;4.95;;;14.70;70.60;;;;;;4985902;28;20048;-83
2022/10/19 07:57:15;;;;;;;11.00;6.20;;;14.80;70.80;;;;;;4985304;28;20030;-84
2022/10/19 07:59:40;;;;;;;12.57;5.63;;;14.80;70.80;;;;;;4996384;28;20022;-83
2022/10/19 08:02:18;;;;;;;11.60;5.25;;;14.90;70.90;;;;;;4994279;28;20030;-82
2022/10/19 08:04:45;;;;;;;12.13;6.18;;;14.90;70.90;;;;;;4977082;28;20027;-83
2022/10/19 08:07:12;;;;;;;11.60;5.63;;;15.00;70.90;;;;;;4981773;28;20039;-83
2022/10/19 08:09:38;;;;;;;15.70;6.88;;;15.10;71.10;;;;;;4980206;28;20047;-81
2022/10/19 08:12:04;;;;;;;8.90;5.22;;;15.10;70.90;;;;;;4989013;28;20027;-81
2022/10/19 08:14:31;;;;;;;9.45;5.15;;;15.20;71.00;;;;;;4979320;28;20050;-81
2022/10/19 08:16:57;;;;;;;12.07;5.20;;;15.30;71.10;;;;;;4991430;28;20524;-81
2022/10/19 08:19:23;;;;;;;12.07;5.68;;;15.30;71.00;;;;;;4989829;28;20184;-81
2022/10/19 08:21:49;;;;;;;6.38;5.18;;;15.30;70.90;;;;;;4990522;28;20400;-82
2022/10/19 08:24:17;;;;;;;9.15;5.35;;;15.40;71.00;;;;;;4971896;28;20031;-82
2022/10/19 08:26:43;;;;;;;10.98;5.50;;;15.40;70.90;;;;;;4991578;28;20307;-81
2022/10/19 08:29:11;;;;;;;12.68;5.60;;;15.50;71.00;;;;;;4977830;28;20540;-82
2022/10/19 08:31:38;;;;;;;10.80;6.47;;;15.50;71.00;;;;;;4981417;28;20037;-82
2022/10/19 08:34:05;;;;;;;12.90;6.57;;;15.50;70.90;;;;;;4990677;28;20033;-84
2022/10/19 08:36:34;;;;;;;9.77;5.85;;;15.60;71.00;;;;;;4987396;28;20034;-83
2022/10/19 08:39:02;;;;;;;8.75;5.13;;;15.60;70.90;;;;;;4989831;28;20445;-84
2022/10/19 08:41:56;;;;;;;16.55;7.97;;;15.70;71.00;;;;;;4982987;28;20026;-83
2022/10/19 08:44:44;;;;;;;8.57;5.13;;;15.70;70.90;;;;;;4981059;28;20501;-83
2022/10/19 08:47:28;;;;;;;9.88;5.20;;;15.80;71.30;;;;;;4991073;28;20397;-84
2022/10/19 08:49:55;;;;;;;11.20;5.10;;;15.90;71.00;;;;;;4994252;28;20113;-82
2022/10/19 08:52:26;;;;;;;10.93;5.47;;;15.90;70.90;;;;;;4994481;28;20022;-82
2022/10/19 08:55:07;;;;;;;8.97;5.67;;;16.00;71.50;;;;;;4967196;28;20045;-82
2022/10/19 08:57:51;;;;;;;12.27;5.28;;;16.10;71.00;;;;;;4970750;28;20038;-82
2022/10/19 09:00:33;;;;;;;11.20;5.28;;;16.20;71.00;;;;;;4986948;28;20057;-83
2022/10/19 09:03:18;;;;;;;8.00;4.93;;;16.20;70.80;;;;;;4985838;28;20049;-83
2022/10/19 09:06:02;;;;;;;6.85;4.47;;;16.30;70.80;;;;;;4990748;28;20034;-84
2022/10/19 09:08:28;;;;;;;7.72;4.15;;;16.40;70.80;;;;;;4984707;28;20041;-83
2022/10/19 09:10:54;;;;;;;10.40;5.47;;;16.60;70.80;;;;;;4974226;28;20418;-85
2022/10/19 09:13:39;;;;;;;6.88;3.97;;;16.70;70.80;;;;;;4982527;28;20022;-84
2022/10/19 09:16:06;;;;;;;9.13;5.10;;;16.80;70.60;;;;;;4984083;28;20045;-83
2022/10/19 09:18:33;;;;;;;12.45;4.10;;;17.00;70.70;;;;;;4984530;28;20030;-87
2022/10/19 09:21:19;;;;;;;10.05;5.40;;;17.10;70.50;;;;;;4972684;28;20030;-86
2022/10/19 09:24:11;;;;;;;8.68;4.32;;;17.20;70.40;;;;;;4992175;28;20058;-83
2022/10/19 09:26:48;;;;;;;8.07;3.92;;;17.40;70.40;;;;;;4977571;28;20493;-83
2022/10/19 09:29:43;;;;;;;8.40;4.05;;;17.40;70.10;;;;;;4985385;28;20035;-83
2022/10/19 09:32:17;;;;;;;9.45;4.25;;;17.40;70.00;;;;;;4969858;28;20050;-83
2022/10/19 09:35:01;;;;;;;8.40;4.15;;;17.50;70.10;;;;;;4961086;28;20034;-83
2022/10/19 09:37:28;;;;;;;11.93;4.38;;;17.50;70.10;;;;;;4980476;28;20123;-83
2022/10/19 09:39:55;;;;;;;8.93;3.97;;;17.50;70.10;;;;;;4984166;28;20030;-83
2022/10/19 09:42:32;;;;;;;13.32;4.95;;;17.50;70.10;;;;;;4981774;28;20105;-82
2022/10/19 09:45:01;;;;;;;8.52;3.75;;;17.40;69.90;;;;;;4983016;28;20443;-83
2022/10/19 09:47:35;;;;;;;5.13;3.15;;;17.50;70.70;;;;;;4987300;28;20057;-85
2022/10/19 09:50:15;;;;;;;6.60;3.03;;;17.40;70.00;;;;;;4969027;28;141951;-82
2022/10/19 09:52:42;;;;;;;6.43;3.50;;;17.40;69.90;;;;;;4975733;28;20022;-81
2022/10/19 09:55:20;;;;;;;5.60;3.80;;;17.40;70.00;;;;;;4988859;28;20030;-83
2022/10/19 09:57:49;;;;;;;11.77;4.78;;;17.40;70.00;;;;;;4983093;28;20026;-81
2022/10/19 10:00:24;;;;;;;7.63;3.60;;;17.40;70.00;;;;;;4990774;28;20035;-83
2022/10/19 10:02:54;;;;;;;10.73;3.58;;;17.40;70.00;;;;;;4985325;28;20018;-82
2022/10/19 10:05:36;;;;;;;11.63;4.65;;;17.50;70.10;;;;;;4982858;28;20030;-83
2022/10/19 10:08:04;;;;;;;7.18;3.47;;;17.40;69.90;;;;;;4988945;28;20018;-81
2022/10/19 10:10:36;;;;;;;7.68;3.70;;;17.50;70.00;;;;;;4979452;28;20088;-85
2022/10/19 10:13:04;;;;;;;9.30;2.75;;;17.60;70.00;;;;;;4983137;28;20023;-82
2022/10/19 10:15:43;;;;;;;6.20;3.17;;;17.60;69.90;;;;;;4984854;28;20111;-80
2022/10/19 10:18:15;;;;;;;5.35;3.08;;;17.70;69.90;;;;;;4983105;28;20060;-82
2022/10/19 10:21:09;;;;;;;7.72;2.83;;;17.70;69.80;;;;;;4987836;28;20389;-86
2022/10/19 10:23:37;;;;;;;5.45;2.67;;;17.80;69.80;;;;;;4985994;28;20398;-86
2022/10/19 10:26:05;;;;;;;7.13;3.17;;;17.80;69.70;;;;;;4983474;28;20027;-82
2022/10/19 10:28:31;;;;;;;9.93;3.28;;;17.90;69.70;;;;;;4968471;28;20030;-84
2022/10/19 10:31:05;;;;;;;7.18;2.95;;;18.00;69.70;;;;;;4983137;28;20030;-83
2022/10/19 10:33:35;;;;;;;8.65;3.10;;;18.10;69.60;;;;;;4981545;28;20030;-82
2022/10/19 10:36:09;;;;;;;5.85;2.42;;;18.20;69.50;;;;;;4998609;28;20030;-83
2022/10/19 10:38:41;;;;;;;6.65;2.78;;;18.40;69.70;;;;;;4956781;28;20162;-82
2022/10/19 10:41:12;;;;;;;6.93;2.95;;;18.50;69.60;;;;;;4986341;28;20035;-84
2022/10/19 10:43:56;;;;;;;6.07;2.90;;;18.60;69.60;;;;;;4989682;28;20045;-82
2022/10/19 10:46:27;;;;;;;6.20;2.70;;;18.70;70.00;;;;;;4983193;28;20105;-82
2022/10/19 10:49:15;;;;;;;6.55;2.67;;;18.80;69.50;;;;;;4981810;28;20413;-95
2022/10/19 10:51:47;;;;;;;4.65;2.33;;;18.90;69.40;;;;;;4969106;28;20092;-86
2022/10/19 10:54:30;;;;;;;9.70;2.88;;;19.00;69.40;;;;;;4988735;28;20417;-84
2022/10/19 10:57:14;;;;;;;7.55;3.05;;;19.10;69.20;;;;;;4993243;28;20034;-81
2022/10/19 11:00:02;;;;;;;4.88;2.22;;;19.10;69.10;;;;;;4989186;28;20038;-84
2022/10/19 11:02:36;;;;;;;6.25;2.83;;;19.20;69.00;;;;;;5001402;28;20030;-84
2022/10/19 11:05:13;;;;;;;6.45;2.80;;;19.30;69.10;;;;;;4985599;28;20026;-82
2022/10/19 11:07:46;;;;;;;4.85;2.90;;;19.30;68.90;;;;;;4989071;28;20034;-84
2022/10/19 11:10:22;;;;;;;7.03;2.97;;;19.30;68.80;;;;;;4988968;28;20044;-83
2022/10/19 11:13:07;;;;;;;7.45;3.35;;;19.40;68.90;;;;;;4989491;28;20408;-81
2022/10/19 11:15:44;;;;;;;11.15;2.90;;;19.40;68.70;;;;;;4978495;28;20034;-78
2022/10/19 11:18:15;;;;;;;5.78;2.25;;;19.60;68.90;;;;;;4969954;28;20046;-79
2022/10/19 11:21:10;;;;;;;5.75;2.78;;;19.70;68.90;;;;;;4984275;28;20353;-79
2022/10/19 11:23:44;;;;;;;9.23;3.63;;;19.70;68.60;;;;;;4966931;28;20430;-79
2022/10/19 11:26:35;;;;;;;7.30;2.67;;;19.80;68.60;;;;;;4988329;28;20185;-85
2022/10/19 11:29:16;;;;;;;5.32;2.25;;;19.80;68.40;;;;;;4999093;28;20025;-80
2022/10/19 11:31:48;;;;;;;3.78;2.47;;;19.80;68.40;;;;;;4981392;28;20055;-82
2022/10/19 11:34:48;;;;;;;9.35;4.03;;;19.80;68.40;;;;;;4987333;28;20032;-81
2022/10/19 11:37:22;;;;;;;4.85;2.83;;;19.80;68.30;;;;;;4966204;28;20056;-81
2022/10/19 11:40:11;;;;;;;6.38;2.92;;;19.90;68.50;;;;;;4986197;28;20038;-81
2022/10/19 11:42:55;;;;;;;6.55;3.42;;;19.90;68.40;;;;;;4992008;28;20030;-81
2022/10/19 11:45:38;;;;;;;6.00;2.72;;;20.00;68.40;;;;;;4987181;28;20030;-80
2022/10/19 11:48:35;;;;;;;6.70;2.97;;;20.10;68.40;;;;;;4981160;28;20588;-79
2022/10/19 11:51:20;;;;;;;6.40;2.47;;;20.10;68.20;;;;;;4983474;28;20046;-80
2022/10/19 11:54:22;;;;;;;6.40;2.67;;;20.20;68.20;;;;;;4996955;28;20035;-80
2022/10/19 11:56:59;;;;;;;8.95;3.28;;;20.20;68.10;;;;;;4987129;28;20529;-79
2022/10/19 11:59:53;;;;;;;6.93;3.33;;;20.30;68.20;;;;;;4989513;28;20049;-81
2022/10/19 12:02:34;;;;;;;6.95;2.50;;;20.20;68.00;;;;;;4986372;28;20042;-79
2022/10/19 12:05:05;;;;;;;5.03;2.22;;;20.20;68.10;;;;;;4982103;28;20060;-80
2022/10/19 12:08:03;;;;;;;5.15;2.33;;;20.20;68.10;;;;;;4988612;28;20045;-80
2022/10/19 12:11:17;;;;;;;8.15;3.38;;;20.20;68.10;;;;;;5002678;28;20031;-79
2022/10/19 12:13:58;;;;;;;3.15;2.17;;;20.10;68.00;;;;;;5009983;28;20100;-80
2022/10/19 12:16:37;;;;;;;6.57;2.60;;;20.10;68.00;;;;;;5000380;28;20054;-80
2022/10/19 12:19:06;;;;;;;5.50;2.70;;;20.20;68.20;;;;;;5006822;28;20038;-80
2022/10/19 12:21:39;;;;;;;4.10;1.95;;;20.20;68.20;;;;;;4980567;28;20025;-80
2022/10/19 12:24:14;;;;;;;9.15;3.78;;;20.30;68.20;;;;;;5005152;28;20061;-80
2022/10/19 12:26:40;;;;;;;6.07;2.47;;;20.40;68.20;;;;;;5008015;28;20062;-81
2022/10/19 12:29:18;;;;;;;5.57;2.22;;;20.50;68.10;;;;;;5001557;28;20129;-81
2022/10/19 12:31:45;;;;;;;5.40;2.40;;;20.60;68.00;;;;;;4989112;28;20057;-81
2022/10/19 12:34:39;;;;;;;4.82;2.50;;;20.70;67.90;;;;;;4989653;28;20437;-80
2022/10/19 12:37:11;;;;;;;4.93;2.17;;;20.90;68.00;;;;;;4993958;28;20050;-80
2022/10/19 12:39:48;;;;;;;4.93;2.60;;;21.00;67.90;;;;;;4989818;28;20040;-81
2022/10/19 12:42:50;;;;;;;4.30;2.15;;;21.10;67.80;;;;;;4977286;28;20488;-83
2022/10/19 12:45:25;;;;;;;5.88;2.38;;;21.20;67.70;;;;;;4985310;28;20048;-81
2022/10/19 12:48:07;;;;;;;6.85;2.50;;;21.30;67.70;;;;;;4985195;28;20043;-84
2022/10/19 12:50:49;;;;;;;5.05;3.15;;;21.30;67.50;;;;;;4987538;28;20061;-77
2022/10/19 12:53:22;;;;;;;5.05;2.90;;;21.40;67.60;;;;;;4988127;28;20540;-78
2022/10/19 12:56:01;;;;;;;6.70;2.45;;;21.50;67.70;;;;;;4987912;28;20038;-84
2022/10/19 12:58:34;;;;;;;5.55;2.75;;;21.50;67.60;;;;;;4991741;28;20022;-81
2022/10/19 13:01:04;;;;;;;5.03;2.10;;;21.60;67.70;;;;;;4989408;28;20052;-80
2022/10/19 13:03:35;;;;;;;4.80;2.15;;;21.60;67.50;;;;;;4985049;28;20399;-79
2022/10/19 13:06:14;;;;;;;6.05;2.72;;;21.60;67.40;;;;;;4979709;28;20565;-79
2022/10/19 13:09:11;;;;;;;3.45;2.80;;;21.80;67.50;;;;;;4985979;28;20034;-80
2022/10/19 13:12:14;;;;;;;7.63;3.10;;;21.80;67.10;;;;;;4989028;28;20406;-79